Terminal Aerodrome Forecast
Issued by NWS Blacksburg, VA

Home | Current Version | Previous Version | Text Only | Print | Product List | Glossary On
Versions: 1 2 3 4 5 6 7 8 9 10 11 12 13 14 15 16 17 18 19 20 21 22 23
000
FTUS41 KRNK 072341
TAFLYH
TAF
KLYH 072341Z 0800/0824 36004KT P6SM OVC200
     FM080600 35004KT P6SM SCT250
     FM081300 VRB03KT P6SM BKN120
     FM081800 14006KT 6SM -RASN BR SCT040 OVC060
      TEMPO 0819/0823 5SM -RASN BR OVC040=

USA.gov is the U.S. government's official web portal to all federal, state and local government web resources and services.